Time;durP1;ratioP1;P1;durP2;ratioP2;P2;SDS_P1;SDS_P2;PMS_P1;PMS_P2;Temp;Humidity;BMP_temperature;BMP_pressure;BME280_temperature;BME280_humidity;BME280_pressure;Samples;Min_cycle;Max_cycle;Signal;HPM_P1;HPM_P2
2023/12/21 00:05:23;;;;;;;1.23;0.50;;;;;;;9.14;78.67;100272.94;5035275;28;20211;-74
2023/12/21 00:08:18;;;;;;;1.37;0.60;;;;;;;9.02;79.36;100259.03;5045827;28;20239;-75
2023/12/21 00:11:06;;;;;;;1.47;0.57;;;;;;;8.98;79.92;100267.38;5051040;28;20196;-73
2023/12/21 00:14:01;;;;;;;1.30;0.80;;;;;;;8.96;80.25;100267.56;5050505;28;20231;-75
2023/12/21 00:16:53;;;;;;;1.93;0.70;;;;;;;8.85;81.10;100256.28;5051376;28;20215;-74
2023/12/21 00:19:36;;;;;;;4.00;1.03;;;;;;;8.82;81.66;100256.56;5033384;28;20208;-73
2023/12/21 00:25:53;;;;;;;1.23;0.50;;;;;;;8.72;82.64;100251.28;5039970;28;20813;-75
2023/12/21 00:32:18;;;;;;;2.53;0.70;;;;;;;8.77;82.91;100229.72;5045881;28;20577;-75
2023/12/21 00:45:44;;;;;;;1.00;0.50;;;;;;;8.88;82.20;100174.03;4971578;28;20759;-73
2023/12/21 01:10:28;;;;;;;1.80;0.20;;;;;;;9.09;80.65;100153.47;4824003;29;20250;-74
2023/12/21 01:13:35;;;;;;;0.20;0.10;;;;;;;9.07;80.83;100160.72;4965320;28;20234;-74
2023/12/21 01:20:08;;;;;;;1.20;0.10;;;;;;;9.15;80.72;100155.53;4942252;28;20220;-73
2023/12/21 01:48:48;;;;;;;0.10;0.10;;;;;;;9.28;80.05;100103.13;5023881;28;20239;-75
2023/12/21 02:02:32;;;;;;;0.10;0.10;;;;;;;9.25;80.22;100082.25;5043010;28;20204;-75
2023/12/21 02:09:16;;;;;;;3.80;0.10;;;;;;;9.27;80.04;100072.34;4961151;28;20838;-73
2023/12/21 02:12:19;;;;;;;0.87;0.10;;;;;;;9.24;80.46;100059.41;4959215;28;20235;-75
2023/12/21 02:19:21;;;;;;;1.93;0.10;;;;;;;9.27;80.56;100056.47;4983605;28;20252;-75
2023/12/21 02:26:19;;;;;;;;;;;;;;;;;;;;;
2023/12/21 02:29:27;;;;;;;0.10;0.10;;;;;;;9.26;81.05;100033.66;4968439;28;20414;-75
2023/12/21 02:36:35;;;;;;;0.10;0.10;;;;;;;9.24;81.97;99992.44;4946903;28;20274;-73
2023/12/21 02:43:43;;;;;;;0.37;0.20;;;;;;;9.24;82.16;99995.91;5004987;28;20212;-75
2023/12/21 02:50:38;;;;;;;0.00;0.00;;;;;;;9.18;82.64;99985.94;4886315;29;20344;-74
2023/12/21 03:01:31;;;;;;;0.23;0.10;;;;;;;9.22;83.13;99971.44;4965096;28;21025;-73
2023/12/21 03:04:39;;;;;;;0.00;0.00;;;;;;;9.20;83.61;99986.63;5000361;28;20719;-75
2023/12/21 03:08:05;;;;;;;0.27;0.10;;;;;;;9.23;83.25;99990.81;4954456;28;20241;-74
2023/12/21 03:15:02;;;;;;;0.00;0.00;;;;;;;9.33;82.50;99980.94;4983720;28;20213;-76
2023/12/21 03:21:13;;;;;;;0.20;0.20;;;;;;;9.37;82.17;99983.16;5043171;28;20331;-76
2023/12/21 03:32:42;;;;;;;0.10;0.10;;;;;;;9.38;82.18;99961.00;5046636;28;20194;-75
2023/12/21 03:39:20;;;;;;;0.10;0.10;;;;;;;9.41;82.19;99949.28;4920559;29;20274;-75
2023/12/21 03:52:25;;;;;;;0.00;0.00;;;;;;;9.42;83.20;99916.53;5040242;28;20926;-74
2023/12/21 03:55:31;;;;;;;1.90;0.20;;;;;;;9.48;83.12;99904.50;5051179;28;20216;-75
2023/12/21 03:58:46;;;;;;;0.00;0.00;;;;;;;9.50;82.72;99906.00;5046325;28;20204;-75
2023/12/21 04:01:36;;;;;;;0.30;0.10;;;;;;;9.52;83.00;99895.25;4956012;28;20235;-75
2023/12/21 04:04:54;;;;;;;0.30;0.07;;;;;;;9.52;83.12;99889.97;4975118;28;20221;-75
2023/12/21 04:11:42;;;;;;;0.00;0.00;;;;;;;9.48;83.30;99891.28;4927651;28;20227;-77
2023/12/21 04:14:54;;;;;;;0.37;0.00;;;;;;;9.49;83.39;99880.53;4963864;28;20236;-75
2023/12/21 04:21:03;;;;;;;0.40;0.10;;;;;;;9.50;83.56;99878.72;4983319;28;20256;-73
2023/12/21 04:24:20;;;;;;;0.10;0.07;;;;;;;9.50;83.73;99868.16;5051330;28;20274;-74
2023/12/21 04:30:20;;;;;;;0.33;0.10;;;;;;;9.55;83.40;99858.75;4952891;28;20216;-75
2023/12/21 05:04:40;;;;;;;0.30;0.10;;;;;;;9.59;83.30;99798.34;4998222;28;20270;-73
2023/12/21 05:20:04;;;;;;;0.60;0.10;;;;;;;9.66;82.67;99765.84;5238646;23;20237;-75
2023/12/21 05:41:47;;;;;;;0.07;0.07;;;;;;;9.69;82.06;99740.84;4887861;29;20273;-75
2023/12/21 05:48:38;;;;;;;0.07;0.07;;;;;;;9.66;82.15;99741.19;4873496;29;20267;-75
2023/12/21 06:14:44;;;;;;;0.30;0.20;;;;;;;9.75;82.78;99698.69;4852415;29;20234;-75
2023/12/21 06:29:08;;;;;;;2.23;0.10;;;;;;;9.81;82.70;99691.91;4894112;29;20226;-75
2023/12/21 06:58:51;;;;;;;0.73;0.20;;;;;;;9.84;82.69;99625.41;4714009;30;20305;-71
2023/12/21 07:01:19;;;;;;;0.60;0.20;;;;;;;9.91;82.97;99618.44;4743680;30;20530;-69
2023/12/21 07:03:47;;;;;;;0.50;0.20;;;;;;;9.88;83.27;99620.59;4776771;29;20815;-70
2023/12/21 07:06:23;;;;;;;0.93;0.30;;;;;;;9.85;83.75;99613.78;4885395;29;20212;-70
2023/12/21 07:08:52;;;;;;;0.10;0.10;;;;;;;9.91;83.53;99613.16;4920575;28;20695;-71
2023/12/21 07:11:20;;;;;;;0.67;0.10;;;;;;;9.91;83.63;99613.16;4970166;28;20847;-69
2023/12/21 07:13:50;;;;;;;0.23;0.13;;;;;;;9.89;83.79;99609.81;4970843;28;20216;-72
2023/12/21 07:16:23;;;;;;;1.20;0.20;;;;;;;9.88;85.07;99617.94;4971631;28;20201;-71
2023/12/21 07:18:52;;;;;;;0.50;0.13;;;;;;;9.86;85.27;99618.09;4967173;28;20555;-71
2023/12/21 07:21:20;;;;;;;0.60;0.30;;;;;;;9.81;85.06;99618.59;4968412;28;20244;-71
2023/12/21 07:35:28;;;;;;;2.47;0.27;;;;;;;9.80;85.84;99600.22;4925868;29;20266;-69
2023/12/21 07:39:05;;;;;;;0.77;0.20;;;;;;;9.76;86.85;99593.63;4925533;28;20253;-68
2023/12/21 07:49:06;;;;;;;1.07;0.20;;;;;;;9.73;87.50;99578.06;4907266;29;20244;-69
2023/12/21 07:59:07;;;;;;;0.93;0.33;;;;;;;9.71;88.05;99559.69;4875359;29;20705;-72
2023/12/21 08:04:53;;;;;;;0.40;0.20;;;;;;;9.76;87.57;99561.84;4885443;29;20223;-73
2023/12/21 08:07:22;;;;;;;1.17;0.47;;;;;;;9.72;87.67;99566.63;4935826;29;20291;-73
2023/12/21 08:13:58;;;;;;;1.13;0.20;;;;;;;9.75;87.00;99539.00;4902542;29;20299;-72
2023/12/21 08:25:02;;;;;;;;;;;;;;;;;;;;;
2023/12/21 08:27:37;;;;;;;0.10;0.10;;;;;;;9.90;85.42;99541.81;4886996;28;20247;-71
2023/12/21 08:30:20;;;;;;;0.10;0.10;;;;;;;9.91;85.62;99531.06;4938391;28;20605;-71
2023/12/21 08:32:53;;;;;;;15.17;0.70;;;;;;;10.07;86.20;99527.56;4942361;28;20715;-70
2023/12/21 08:38:15;;;;;;;0.50;0.10;;;;;;;10.35;84.92;99520.91;5094074;27;20542;-67
2023/12/21 08:40:54;;;;;;;;;;;;;;;;;;;;;
2023/12/21 08:43:25;;;;;;;0.63;0.30;;;;;;;10.32;83.24;99512.47;5091535;28;20210;-69
2023/12/21 08:45:56;;;;;;;0.80;0.40;;;;;;;10.28;84.13;99509.34;5095662;28;20842;-70
2023/12/21 08:48:24;;;;;;;1.73;0.30;;;;;;;10.28;84.72;99532.38;5093515;28;20282;-70
2023/12/21 08:50:52;;;;;;;0.47;0.20;;;;;;;10.33;84.63;99528.22;5079693;27;20205;-71
2023/12/21 08:53:23;;;;;;;0.40;0.20;;;;;;;10.36;83.83;99511.16;5031748;28;20221;-68
2023/12/21 08:55:54;;;;;;;0.30;0.20;;;;;;;10.38;83.54;99477.38;5034596;28;20603;-68
2023/12/21 08:58:24;;;;;;;0.23;0.10;;;;;;;10.43;83.06;99475.00;5030823;28;20288;-68
2023/12/21 09:00:52;;;;;;;0.40;0.20;;;;;;;10.41;83.15;99466.41;5031616;28;20812;-71
2023/12/21 09:03:20;;;;;;;0.30;0.10;;;;;;;10.37;83.38;99473.88;5036613;28;20213;-68
2023/12/21 09:05:49;;;;;;;2.10;0.30;;;;;;;10.38;83.58;99472.06;5033847;28;20272;-70
2023/12/21 09:08:26;;;;;;;0.40;0.20;;;;;;;10.36;83.94;99460.81;5034037;28;20704;-67
2023/12/21 09:10:54;;;;;;;0.10;0.10;;;;;;;10.33;84.31;99458.50;5032378;28;20211;-71
2023/12/21 09:13:22;;;;;;;0.93;0.30;;;;;;;10.34;84.40;99450.38;5034155;28;20221;-69
2023/12/21 09:15:51;;;;;;;0.50;0.10;;;;;;;10.39;84.27;99447.19;5033121;28;20220;-69
2023/12/21 09:18:19;;;;;;;0.87;0.20;;;;;;;10.37;84.50;99433.31;5033571;28;20249;-69
2023/12/21 09:20:47;;;;;;;0.37;0.23;;;;;;;10.33;85.52;99432.00;5035388;28;20873;-71
2023/12/21 09:23:16;;;;;;;0.20;0.13;;;;;;;10.35;85.10;99430.00;5031181;28;20233;-68
2023/12/21 09:25:45;;;;;;;0.60;0.20;;;;;;;10.37;85.36;99422.72;5031375;28;20212;-69
2023/12/21 09:28:18;;;;;;;0.40;0.20;;;;;;;10.35;85.16;99411.44;5027740;28;20218;-71
2023/12/21 09:30:49;;;;;;;0.20;0.20;;;;;;;10.31;85.64;99400.34;5032315;28;20569;-69
2023/12/21 09:33:18;;;;;;;0.20;0.20;;;;;;;10.30;86.09;99411.13;5028786;28;20203;-70
2023/12/21 09:35:48;;;;;;;0.60;0.20;;;;;;;10.30;86.24;99405.81;5031243;28;20211;-69
2023/12/21 09:38:16;;;;;;;0.50;0.20;;;;;;;10.30;86.22;99389.94;5029962;28;20241;-70
2023/12/21 09:40:45;;;;;;;0.87;0.20;;;;;;;10.36;85.87;99399.84;5030280;28;20214;-72
2023/12/21 09:43:18;;;;;;;3.43;0.30;;;;;;;10.28;86.16;99395.41;5028929;28;20218;-68
2023/12/21 09:45:51;;;;;;;0.27;0.20;;;;;;;10.27;86.45;99369.94;5030466;28;20755;-67
2023/12/21 09:48:20;;;;;;;0.50;0.20;;;;;;;10.29;86.08;99351.22;5023411;28;20223;-69
2023/12/21 09:50:50;;;;;;;0.20;0.20;;;;;;;10.32;86.18;99311.09;5018084;28;20212;-67
2023/12/21 09:53:21;;;;;;;1.43;0.30;;;;;;;10.35;85.58;99287.75;5014560;28;20216;-69
2023/12/21 09:55:53;;;;;;;0.40;0.30;;;;;;;10.37;85.91;99295.53;5018842;28;20631;-73
2023/12/21 09:58:22;;;;;;;0.80;0.30;;;;;;;10.40;85.70;99292.50;5017606;28;20262;-70
2023/12/21 10:00:50;;;;;;;0.33;0.10;;;;;;;10.44;85.63;99286.69;5014179;28;20202;-68
2023/12/21 10:03:18;;;;;;;0.63;0.30;;;;;;;10.49;85.58;99272.91;5017877;28;20215;-68
2023/12/21 10:05:47;;;;;;;3.63;0.30;;;;;;;10.56;85.05;99263.22;5019705;28;20218;-69
2023/12/21 10:08:18;;;;;;;0.70;0.30;;;;;;;10.50;84.94;99261.28;5018289;28;20224;-69
2023/12/21 10:10:46;;;;;;;0.40;0.30;;;;;;;10.52;84.53;99256.66;5018919;28;20212;-69
2023/12/21 10:13:16;;;;;;;0.10;0.10;;;;;;;10.53;84.81;99253.00;5018113;28;20216;-69
2023/12/21 10:15:46;;;;;;;0.20;0.10;;;;;;;10.54;84.52;99244.06;5016677;28;20216;-69
2023/12/21 10:18:23;;;;;;;1.30;0.10;;;;;;;10.54;84.48;99262.59;5017364;28;20575;-68
2023/12/21 10:21:01;;;;;;;0.10;0.10;;;;;;;10.57;84.19;99259.59;5012373;28;20634;-72
2023/12/21 10:23:29;;;;;;;0.20;0.20;;;;;;;10.59;84.47;99262.88;5014569;28;20224;-70
2023/12/21 10:25:58;;;;;;;2.20;0.20;;;;;;;10.56;84.59;99273.84;5016229;28;20288;-72
2023/12/21 10:28:29;;;;;;;1.27;0.33;;;;;;;10.57;84.98;99267.53;5014244;28;20209;-72
2023/12/21 10:30:58;;;;;;;0.77;0.20;;;;;;;10.61;84.96;99244.97;5014481;28;20213;-69
2023/12/21 10:33:26;;;;;;;0.20;0.20;;;;;;;10.60;84.86;99219.47;5017295;28;20232;-69
2023/12/21 10:35:55;;;;;;;0.70;0.10;;;;;;;10.61;84.93;99221.13;5016295;28;20213;-68
2023/12/21 10:38:23;;;;;;;0.10;0.10;;;;;;;10.67;84.82;99207.16;5018618;28;20690;-73
2023/12/21 10:40:51;;;;;;;0.20;0.10;;;;;;;10.65;84.91;99209.16;5015380;28;20216;-67
2023/12/21 10:43:21;;;;;;;0.60;0.10;;;;;;;10.71;85.06;99197.84;5015794;28;20208;-68
2023/12/21 10:45:50;;;;;;;0.30;0.13;;;;;;;10.69;85.43;99193.72;5015590;28;20213;-70
2023/12/21 10:48:27;;;;;;;0.53;0.20;;;;;;;10.70;85.29;99176.81;5014544;28;20692;-68
2023/12/21 10:51:01;;;;;;;1.53;0.20;;;;;;;10.75;85.32;99180.56;5017349;28;20220;-70
2023/12/21 10:53:31;;;;;;;0.50;0.20;;;;;;;10.77;85.17;99173.25;5014905;28;20235;-69
2023/12/21 10:56:06;;;;;;;0.33;0.20;;;;;;;10.81;84.86;99153.34;5016161;28;20220;-69
2023/12/21 10:58:34;;;;;;;0.50;0.20;;;;;;;10.80;85.47;99148.22;5016858;28;20218;-72
2023/12/21 11:01:08;;;;;;;0.30;0.20;;;;;;;10.80;85.54;99135.78;5015408;28;20303;-69
2023/12/21 11:03:40;;;;;;;0.10;0.10;;;;;;;10.79;86.51;99125.34;5012546;28;20767;-69
2023/12/21 11:06:17;;;;;;;0.20;0.10;;;;;;;10.80;86.68;99130.47;5016857;28;20211;-73
2023/12/21 11:08:45;;;;;;;0.20;0.20;;;;;;;10.83;86.60;99143.34;5012576;28;20215;-68
2023/12/21 11:11:16;;;;;;;0.40;0.20;;;;;;;10.85;86.56;99136.06;5017629;28;20201;-69
2023/12/21 11:13:47;;;;;;;0.10;0.10;;;;;;;10.90;86.63;99139.00;5016129;28;20197;-68
2023/12/21 11:16:26;;;;;;;0.40;0.20;;;;;;;10.90;86.39;99138.19;5012962;28;20200;-69
2023/12/21 11:18:56;;;;;;;0.20;0.20;;;;;;;10.92;85.96;99121.06;5014206;28;20318;-69
2023/12/21 11:24:21;;;;;;;0.43;0.20;;;;;;;10.98;86.31;99092.16;5014381;28;20327;-70
2023/12/21 11:26:59;;;;;;;0.40;0.10;;;;;;;10.99;86.02;99099.13;5012764;28;20212;-72
2023/12/21 11:29:40;;;;;;;0.23;0.17;;;;;;;10.96;86.38;99094.19;5016006;28;20285;-70
2023/12/21 11:32:26;;;;;;;0.40;0.20;;;;;;;11.01;86.27;99091.78;5013359;28;20228;-69
2023/12/21 11:34:54;;;;;;;0.57;0.27;;;;;;;11.01;85.67;99073.22;5017673;28;20213;-72
2023/12/21 11:37:24;;;;;;;0.93;0.20;;;;;;;10.93;86.16;99077.63;5013013;28;20567;-71
2023/12/21 11:39:58;;;;;;;0.27;0.10;;;;;;;10.96;86.00;99078.25;5014251;28;20229;-74
2023/12/21 11:42:39;;;;;;;0.30;0.20;;;;;;;10.96;86.34;99059.69;5011417;28;20652;-68
2023/12/21 11:45:09;;;;;;;0.70;0.30;;;;;;;11.03;86.29;99066.72;5012120;28;20208;-72
2023/12/21 11:47:38;;;;;;;0.87;0.10;;;;;;;11.04;86.18;99054.28;5011754;28;20490;-69
2023/12/21 11:50:09;;;;;;;0.40;0.20;;;;;;;11.03;86.51;99050.81;5013857;28;20210;-67
2023/12/21 11:52:39;;;;;;;0.30;0.20;;;;;;;11.08;86.03;99034.34;5013689;28;20244;-70
2023/12/21 11:55:07;;;;;;;0.90;0.40;;;;;;;11.10;85.54;99046.41;5013601;28;20522;-69
2023/12/21 11:57:40;;;;;;;1.20;0.40;;;;;;;11.12;85.84;99025.00;5012464;28;20252;-69
2023/12/21 12:00:10;;;;;;;0.40;0.27;;;;;;;11.10;86.07;99024.34;5018101;28;20220;-69
2023/12/21 12:02:44;;;;;;;0.47;0.20;;;;;;;11.12;86.28;99025.00;5015936;28;20262;-69
2023/12/21 12:05:26;;;;;;;3.20;0.13;;;;;;;11.10;86.85;99022.53;5019357;28;20291;-68
2023/12/21 12:10:59;;;;;;;0.30;0.20;;;;;;;11.58;87.66;98998.97;5010983;28;20691;-69
2023/12/21 12:13:30;;;;;;;1.57;0.10;;;;;;;11.56;85.15;98995.66;5013685;28;20203;-69
2023/12/21 12:15:58;;;;;;;0.10;0.10;;;;;;;11.55;85.06;99000.16;5014261;28;20295;-70
2023/12/21 12:18:27;;;;;;;0.20;0.10;;;;;;;11.49;84.93;99005.41;5012633;28;20264;-70
2023/12/21 12:24:54;;;;;;;0.53;0.23;;;;;;;11.48;85.07;98983.34;5012113;28;20764;-73
2023/12/21 12:27:35;;;;;;;1.27;0.30;;;;;;;11.45;85.68;98989.03;5013540;28;20717;-68
2023/12/21 12:30:04;;;;;;;1.33;0.20;;;;;;;11.40;86.61;99002.06;5012236;28;20666;-67
2023/12/21 12:32:41;;;;;;;0.30;0.20;;;;;;;11.40;86.93;98980.00;5013079;28;20200;-68
2023/12/21 12:35:17;;;;;;;0.77;0.40;;;;;;;11.39;87.37;98984.47;5011554;28;20209;-69
2023/12/21 12:37:51;;;;;;;0.40;0.30;;;;;;;11.42;87.18;98968.19;5012933;28;20644;-68
2023/12/21 12:40:20;;;;;;;0.87;0.30;;;;;;;11.47;86.96;98986.19;5010997;28;20212;-71
2023/12/21 12:42:48;;;;;;;1.50;0.60;;;;;;;11.47;87.20;98959.66;5014720;28;20220;-66
2023/12/21 12:45:18;;;;;;;0.97;0.37;;;;;;;11.49;86.89;98973.56;5011903;28;20220;-67
2023/12/21 12:47:46;;;;;;;1.20;0.40;;;;;;;11.47;86.92;98971.09;5013684;28;20212;-67
2023/12/21 12:50:16;;;;;;;0.67;0.20;;;;;;;11.50;87.02;98967.22;5010515;28;20670;-67
2023/12/21 12:52:49;;;;;;;0.40;0.30;;;;;;;11.52;86.89;98950.09;5013921;28;20212;-70
2023/12/21 12:55:20;;;;;;;0.23;0.20;;;;;;;11.52;86.99;98942.13;5011649;28;20335;-72
2023/12/21 12:58:01;;;;;;;1.63;0.67;;;;;;;11.50;87.27;98959.28;5015196;28;20332;-70
2023/12/21 13:00:30;;;;;;;0.63;0.30;;;;;;;11.49;87.11;98942.53;5012642;28;20205;-69
2023/12/21 13:03:01;;;;;;;3.40;0.30;;;;;;;11.51;86.92;98939.69;5012223;28;20666;-68
2023/12/21 13:05:30;;;;;;;0.80;0.40;;;;;;;11.50;86.82;98944.16;5012152;28;20201;-67
2023/12/21 13:07:58;;;;;;;0.50;0.20;;;;;;;11.55;86.46;98939.09;5014970;28;20217;-66
2023/12/21 13:10:27;;;;;;;0.10;0.10;;;;;;;11.50;87.13;98952.13;5012258;28;20302;-66
2023/12/21 13:12:55;;;;;;;0.20;0.20;;;;;;;11.47;87.50;98949.84;5011196;28;20210;-72
2023/12/21 13:15:40;;;;;;;0.73;0.33;;;;;;;11.48;87.48;98938.22;5008704;28;20236;-69
2023/12/21 13:18:08;;;;;;;0.53;0.30;;;;;;;11.51;87.64;98932.53;5013673;28;20209;-64
2023/12/21 13:20:38;;;;;;;1.17;0.30;;;;;;;11.51;88.20;98929.88;5013740;28;20632;-64
2023/12/21 13:23:06;;;;;;;0.50;0.20;;;;;;;11.52;88.69;98928.06;5014621;28;20284;-66
2023/12/21 13:25:44;;;;;;;1.00;0.50;;;;;;;11.55;88.42;98925.00;5017139;28;20204;-65
2023/12/21 13:28:22;;;;;;;2.20;0.40;;;;;;;11.62;88.82;98909.94;5018126;28;20197;-67
2023/12/21 13:30:58;;;;;;;0.30;0.20;;;;;;;11.63;88.68;98940.78;5015907;28;20217;-68
2023/12/21 13:33:28;;;;;;;0.23;0.20;;;;;;;11.62;88.78;98910.75;5014827;28;20755;-66
2023/12/21 13:35:58;;;;;;;0.40;0.10;;;;;;;11.61;88.64;98903.81;5016732;28;20212;-68
2023/12/21 13:38:27;;;;;;;0.13;0.10;;;;;;;11.67;88.55;98919.00;5015528;28;20263;-67
2023/12/21 13:40:56;;;;;;;1.47;0.23;;;;;;;11.72;88.14;98921.06;5014995;28;20591;-67
2023/12/21 13:43:24;;;;;;;5.00;0.40;;;;;;;11.72;88.06;98909.59;5012819;28;20223;-69
2023/12/21 13:45:52;;;;;;;0.70;0.13;;;;;;;11.76;87.41;98908.25;5016279;28;20306;-70
2023/12/21 13:48:27;;;;;;;2.13;0.30;;;;;;;11.75;87.15;98909.25;5015456;28;20237;-66
2023/12/21 13:50:55;;;;;;;0.40;0.20;;;;;;;11.75;87.29;98911.91;5015142;28;20293;-67
2023/12/21 13:53:25;;;;;;;0.07;0.03;;;;;;;11.78;87.11;98916.84;5017291;28;20202;-68
2023/12/21 13:55:53;;;;;;;0.17;0.10;;;;;;;11.82;86.52;98913.59;5019064;28;20205;-70
2023/12/21 13:58:28;;;;;;;1.67;0.33;;;;;;;11.84;86.46;98913.41;5013875;28;20592;-69
2023/12/21 14:01:22;;;;;;;0.30;0.20;;;;;;;11.83;86.64;98917.09;5015964;28;20220;-70
2023/12/21 14:03:51;;;;;;;0.63;0.20;;;;;;;11.82;86.80;98904.81;5016310;28;20289;-69
2023/12/21 14:06:23;;;;;;;0.57;0.20;;;;;;;11.82;86.67;98902.97;5014632;28;20632;-69
2023/12/21 14:08:55;;;;;;;0.20;0.20;;;;;;;11.83;86.64;98901.97;5014333;28;20262;-67
2023/12/21 14:11:27;;;;;;;0.40;0.20;;;;;;;11.84;87.13;98885.03;5012250;28;20666;-69
2023/12/21 14:13:58;;;;;;;1.93;0.40;;;;;;;11.87;87.22;98907.72;5015318;28;20212;-71
2023/12/21 14:16:27;;;;;;;1.20;0.30;;;;;;;11.84;87.90;98884.22;5013399;28;20223;-70
2023/12/21 14:19:00;;;;;;;3.77;0.30;;;;;;;11.85;87.45;98899.13;5017335;28;20202;-71
2023/12/21 14:21:33;;;;;;;0.60;0.20;;;;;;;11.87;87.34;98889.13;5014402;28;20246;-67
2023/12/21 14:24:03;;;;;;;0.73;0.40;;;;;;;11.90;87.09;98883.41;5015269;28;20229;-69
2023/12/21 14:26:30;;;;;;;0.67;0.40;;;;;;;11.85;87.45;98877.88;5012759;28;20268;-74
2023/12/21 14:28:58;;;;;;;1.40;0.47;;;;;;;11.85;87.60;98861.94;5016337;28;20213;-66
2023/12/21 14:31:27;;;;;;;0.43;0.20;;;;;;;11.86;87.76;98859.09;5015762;28;20270;-67
2023/12/21 14:33:59;;;;;;;0.40;0.20;;;;;;;11.88;87.78;98866.84;5014791;28;20210;-66
2023/12/21 14:36:30;;;;;;;0.47;0.40;;;;;;;11.85;88.41;98878.69;5017866;28;20224;-71
2023/12/21 14:39:05;;;;;;;1.03;0.30;;;;;;;11.89;88.59;98879.94;5014432;28;20228;-71
2023/12/21 14:41:35;;;;;;;3.70;0.40;;;;;;;11.84;89.90;98876.25;5015275;28;20231;-72
2023/12/21 14:44:06;;;;;;;0.97;0.20;;;;;;;11.83;90.50;98859.47;5011282;28;20267;-70
2023/12/21 14:46:39;;;;;;;0.47;0.27;;;;;;;11.82;91.50;98894.19;5016135;28;20209;-70
2023/12/21 14:49:09;;;;;;;2.83;0.40;;;;;;;11.78;92.83;98899.09;5014553;28;20214;-68
2023/12/21 14:51:46;;;;;;;0.87;0.40;;;;;;;11.80;93.77;98890.91;5015072;28;20217;-70
2023/12/21 14:54:38;;;;;;;1.93;0.30;;;;;;;11.81;93.70;98881.94;4970383;28;20212;-71
2023/12/21 14:57:17;;;;;;;2.20;0.30;;;;;;;11.78;94.39;98883.16;5017281;28;20206;-74
2023/12/21 14:59:53;;;;;;;0.63;0.30;;;;;;;11.83;94.33;98879.91;5017733;28;20298;-70
2023/12/21 15:02:55;;;;;;;1.00;0.40;;;;;;;11.82;94.10;98868.47;5011410;28;20948;-71
2023/12/21 15:05:29;;;;;;;3.73;0.70;;;;;;;11.85;94.42;98861.94;5011621;28;20216;-71
2023/12/21 15:08:09;;;;;;;1.60;0.50;;;;;;;11.91;95.55;98861.16;5015345;28;20744;-74
2023/12/21 15:10:41;;;;;;;0.73;0.40;;;;;;;11.89;95.13;98873.81;5011962;28;20263;-74
2023/12/21 15:13:14;;;;;;;2.30;0.37;;;;;;;11.90;95.65;98878.09;5016709;28;20241;-65
2023/12/21 15:15:44;;;;;;;1.87;0.40;;;;;;;11.92;94.98;98865.47;5015187;28;20282;-69
2023/12/21 15:18:15;;;;;;;1.20;0.80;;;;;;;11.98;94.76;98867.31;5015964;28;20220;-66
2023/12/21 15:20:55;;;;;;;8.23;1.37;;;;;;;12.11;94.37;98871.91;5018967;28;20274;-72
2023/12/21 15:23:23;;;;;;;0.77;0.10;;;;;;;12.24;92.74;98878.09;5016026;28;20224;-68
2023/12/21 15:25:51;;;;;;;2.03;0.50;;;;;;;12.34;92.21;98861.78;5015316;28;20217;-70
2023/12/21 15:28:21;;;;;;;3.07;0.50;;;;;;;12.44;90.64;98851.59;5018700;28;21259;-68
2023/12/21 15:34:02;;;;;;;1.43;0.20;;;;;;;12.34;89.49;98854.63;5017774;28;20896;-69
2023/12/21 15:36:33;;;;;;;1.03;0.30;;;;;;;12.21;90.60;98854.59;5012033;28;20221;-68
2023/12/21 15:42:16;;;;;;;0.50;0.20;;;;;;;12.02;92.71;98847.34;5011480;28;20263;-68
2023/12/21 15:44:49;;;;;;;3.30;0.30;;;;;;;11.94;93.61;98839.53;5013558;28;20255;-68
2023/12/21 15:47:18;;;;;;;0.70;0.20;;;;;;;11.91;93.48;98837.25;5015572;28;20206;-67
2023/12/21 15:50:00;;;;;;;0.60;0.30;;;;;;;11.90;93.48;98838.28;5012881;28;20555;-70
2023/12/21 15:52:29;;;;;;;2.63;0.40;;;;;;;11.90;92.48;98827.66;5014524;28;20200;-70
2023/12/21 15:54:58;;;;;;;1.57;0.40;;;;;;;11.90;91.62;98822.34;5013107;28;20268;-69
2023/12/21 15:57:54;;;;;;;1.77;0.33;;;;;;;11.89;91.84;98815.38;5014097;28;20225;-68
2023/12/21 16:00:30;;;;;;;1.30;0.40;;;;;;;11.82;92.30;98825.97;5014688;28;20224;-69
2023/12/21 16:03:04;;;;;;;0.90;0.40;;;;;;;11.86;91.97;98821.09;5014586;28;20212;-67
2023/12/21 16:06:14;;;;;;;1.10;0.47;;;;;;;11.90;91.68;98812.53;5011914;28;20251;-67
2023/12/21 16:09:00;;;;;;;3.27;0.70;;;;;;;11.88;91.18;98811.91;4963795;28;20219;-70
2023/12/21 16:11:44;;;;;;;1.30;0.60;;;;;;;11.87;90.53;98818.25;5012820;28;20216;-67
2023/12/21 16:17:50;;;;;;;1.10;0.60;;;;;;;11.87;88.95;98812.94;4916880;29;20348;-68
2023/12/21 16:20:34;;;;;;;2.60;0.70;;;;;;;11.94;88.60;98826.25;4982244;28;20259;-72
2023/12/21 16:26:17;;;;;;;1.30;0.67;;;;;;;11.92;87.46;98830.94;5007904;28;20213;-69
2023/12/21 16:28:51;;;;;;;2.33;0.70;;;;;;;11.94;87.13;98839.53;5014666;28;20266;-68
2023/12/21 16:31:40;;;;;;;2.70;0.50;;;;;;;11.98;86.37;98824.81;5012847;28;20209;-68
2023/12/21 16:34:13;;;;;;;1.30;0.50;;;;;;;11.93;85.47;98838.72;5013465;28;20212;-69
2023/12/21 16:36:42;;;;;;;1.17;0.60;;;;;;;11.89;84.14;98841.94;5015132;28;20670;-68
2023/12/21 16:42:03;;;;;;;1.00;0.50;;;;;;;11.82;81.73;98825.16;5007284;28;20237;-69
2023/12/21 16:44:50;;;;;;;2.73;0.70;;;;;;;11.79;80.86;98814.91;5012280;28;20705;-70
2023/12/21 16:47:19;;;;;;;4.37;0.90;;;;;;;11.79;80.59;98823.69;5011671;28;20212;-67
2023/12/21 16:50:02;;;;;;;4.03;0.87;;;;;;;11.79;80.00;98836.16;5011320;28;20208;-73
2023/12/21 16:52:34;;;;;;;2.63;0.90;;;;;;;11.72;78.73;98840.56;5013644;28;20205;-68
2023/12/21 16:55:11;;;;;;;5.47;1.00;;;;;;;11.73;78.62;98842.22;5010253;28;20931;-68
2023/12/21 16:58:05;;;;;;;2.63;0.97;;;;;;;11.74;78.91;98839.38;5009300;28;20209;-70
2023/12/21 17:00:50;;;;;;;2.60;0.80;;;;;;;11.78;77.27;98845.16;4996591;28;20313;-69
2023/12/21 17:03:30;;;;;;;3.43;0.70;;;;;;;11.81;77.31;98850.06;5010660;28;20211;-67
2023/12/21 17:10:21;;;;;;;2.80;0.90;;;;;;;11.92;76.78;98852.19;4986952;28;20220;-70
2023/12/21 17:13:21;;;;;;;4.90;1.10;;;;;;;11.92;76.08;98847.69;4997230;28;20223;-70
2023/12/21 17:16:07;;;;;;;2.83;0.80;;;;;;;11.92;74.56;98857.50;5013843;28;20221;-70
2023/12/21 17:22:27;;;;;;;2.50;1.03;;;;;;;11.94;73.61;98874.06;5013978;28;20267;-69
2023/12/21 17:25:35;;;;;;;1.83;0.80;;;;;;;11.98;73.52;98881.44;5015791;28;20877;-69
2023/12/21 17:32:24;;;;;;;3.70;1.07;;;;;;;11.96;76.44;98906.56;5002032;28;20224;-68
2023/12/21 17:36:04;;;;;;;2.70;1.00;;;;;;;11.93;77.86;98891.00;5012111;28;20217;-69
2023/12/21 17:42:53;;;;;;;2.50;0.70;;;;;;;11.81;79.21;98905.81;4957198;28;20253;-69
2023/12/21 17:56:39;;;;;;;2.60;0.80;;;;;;;11.70;79.92;98893.88;4881690;29;20742;-68
2023/12/21 18:07:34;;;;;;;2.67;0.60;;;;;;;11.55;80.33;98880.69;4859750;29;20223;-69
2023/12/21 18:11:02;;;;;;;2.07;0.50;;;;;;;11.49;79.45;98878.81;4864781;29;20224;-72
2023/12/21 18:18:13;;;;;;;4.43;0.80;;;;;;;11.48;78.33;98882.47;4773115;30;20228;-69
2023/12/21 18:24:14;;;;;;;1.60;0.70;;;;;;;11.40;76.23;98869.34;4957651;28;20222;-70
2023/12/21 18:30:54;;;;;;;4.40;0.80;;;;;;;11.27;74.54;98883.31;4967073;28;20209;-75
2023/12/21 18:33:56;;;;;;;4.10;0.73;;;;;;;11.28;74.59;98884.13;4982133;28;20403;-71
2023/12/21 18:36:44;;;;;;;3.70;0.90;;;;;;;11.28;74.62;98882.31;5017801;28;20564;-72
2023/12/21 18:39:44;;;;;;;2.73;0.73;;;;;;;11.26;74.28;98900.25;5014641;28;20221;-68
2023/12/21 18:46:10;;;;;;;3.00;1.10;;;;;;;11.22;72.49;98876.97;5014695;28;20304;-74
2023/12/21 18:48:39;;;;;;;3.47;1.00;;;;;;;11.18;72.24;98886.28;5027787;28;20650;-72
2023/12/21 18:55:25;;;;;;;7.33;1.17;;;;;;;11.12;71.94;98903.81;5007867;28;20295;-70
2023/12/21 18:58:06;;;;;;;6.63;1.13;;;;;;;11.11;71.25;98911.94;5022125;28;20206;-75
2023/12/21 19:01:15;;;;;;;2.53;0.80;;;;;;;11.11;71.48;98907.47;5019437;28;20565;-72
2023/12/21 19:03:59;;;;;;;3.83;1.13;;;;;;;11.10;70.33;98905.00;5013559;28;20718;-73
2023/12/21 19:07:16;;;;;;;5.07;1.20;;;;;;;11.11;70.42;98906.63;5020943;28;20204;-70
2023/12/21 19:13:56;;;;;;;8.87;1.27;;;;;;;11.10;70.15;98910.28;5061780;28;20328;-71
2023/12/21 19:20:52;;;;;;;6.63;0.80;;;;;;;11.10;70.06;98920.91;5055169;28;20257;-72
2023/12/21 19:31:03;;;;;;;;;;;;;;;;;;;;;
2023/12/21 19:33:35;;;;;;;6.60;0.90;;;;;;;11.05;68.78;98944.53;5052268;28;20216;-70
2023/12/21 19:36:19;;;;;;;4.13;1.10;;;;;;;11.11;68.86;98939.28;5060833;28;20199;-70
2023/12/21 19:38:52;;;;;;;2.33;0.77;;;;;;;11.13;67.67;98944.41;5060215;28;20208;-68